createdAt,value
2018-09-04T00:04:21.370Z,99.90
2018-09-04T00:12:56.950Z,99.90
2018-09-04T00:15:26.844Z,99.90
2018-09-04T00:23:42.628Z,99.90
2018-09-04T00:43:28.752Z,99.90
2018-09-04T01:03:14.299Z,99.90
2018-09-04T01:34:31.098Z,99.90
2018-09-04T02:34:35.200Z,99.90
2018-09-04T03:34:41.947Z,99.90
2018-09-04T05:00:50.123Z,99.90
2018-09-04T05:03:23.039Z,99.90
2018-09-04T05:05:53.582Z,99.90
2018-09-04T05:08:32.293Z,99.90
2018-09-04T05:11:06.618Z,99.90
2018-09-04T05:13:37.127Z,99.90
2018-09-04T05:19:01.279Z,99.90
2018-09-04T05:21:32.051Z,99.90
2018-09-04T05:24:03.155Z,99.90
2018-09-04T05:26:33.328Z,99.90
2018-09-04T05:29:04.591Z,99.90
2018-09-04T05:31:40.960Z,99.90
2018-09-04T05:34:11.688Z,99.90
2018-09-04T05:36:42.036Z,99.90
2018-09-04T05:39:12.629Z,99.90
2018-09-04T05:41:43.467Z,99.90
2018-09-04T05:44:14.391Z,99.90
2018-09-04T05:46:47.960Z,99.90
2018-09-04T05:49:21.622Z,99.90
2018-09-04T05:51:52.227Z,99.90
2018-09-04T05:54:30.931Z,99.90
2018-09-04T05:57:01.859Z,99.90
2018-09-04T05:59:32.570Z,99.90
2018-09-04T06:02:03.185Z,99.90
2018-09-04T06:04:33.742Z,99.90
2018-09-04T06:07:04.793Z,99.90
2018-09-04T06:09:35.393Z,99.90
2018-09-04T06:12:06.048Z,99.90
2018-09-04T06:14:36.654Z,99.90
2018-09-04T06:17:07.594Z,99.90
2018-09-04T06:19:38.034Z,99.90
2018-09-04T06:22:08.291Z,99.90
2018-09-04T06:24:39.215Z,99.90
2018-09-04T06:27:09.880Z,99.90
2018-09-04T06:29:40.463Z,99.90
2018-09-04T06:32:11.321Z,99.90
2018-09-04T06:34:42.247Z,99.90
2018-09-04T06:37:12.610Z,99.90
2018-09-04T06:39:43.506Z,99.90
2018-09-04T06:42:14.188Z,99.90
2018-09-04T06:44:44.518Z,99.90
2018-09-04T06:47:14.792Z,99.50
2018-09-04T06:49:45.454Z,99.40
2018-09-04T06:52:16.264Z,98.90
2018-09-04T06:54:46.863Z,98.50
2018-09-04T06:57:17.109Z,97.80
2018-09-04T07:02:38.968Z,97.20
2018-09-04T07:05:09.649Z,96.90
2018-09-04T07:13:24.407Z,94.50
2018-09-04T07:15:54.304Z,93.90
2018-09-04T07:21:16.010Z,93.70
2018-09-04T07:23:45.917Z,93.70
2018-09-04T07:26:15.107Z,91.90
2018-09-04T07:28:43.859Z,92.60
2018-09-04T07:34:05.467Z,92.10
2018-09-04T07:36:34.596Z,91.80
2018-09-04T07:39:03.816Z,91.60
2018-09-04T07:41:32.601Z,92.00
2018-09-04T07:44:01.817Z,91.30
2018-09-04T07:46:30.590Z,91.00
2018-09-04T07:49:02.938Z,91.10
2018-09-04T07:51:32.054Z,91.10
2018-09-04T07:54:00.864Z,90.80
2018-09-04T07:56:29.673Z,90.30
2018-09-04T08:04:45.882Z,89.90
2018-09-04T08:07:15.349Z,89.60
2018-09-04T08:09:44.282Z,89.10
2018-09-04T08:15:06.613Z,88.40
2018-09-04T08:20:28.564Z,87.40
2018-09-04T08:22:57.727Z,86.50
2018-09-04T08:25:27.292Z,85.90
2018-09-04T08:27:56.076Z,86.00
2018-09-04T08:30:24.912Z,86.70
2018-09-04T08:32:53.719Z,86.60
2018-09-04T08:35:22.446Z,86.60
2018-09-04T08:37:55.342Z,87.10
2018-09-04T08:40:24.305Z,87.20
2018-09-04T08:42:53.036Z,87.80
2018-09-04T08:45:21.926Z,88.00
2018-09-04T08:47:50.775Z,88.00
2018-09-04T08:50:19.570Z,87.30
2018-09-04T08:52:48.454Z,87.30
2018-09-04T08:55:17.210Z,87.40
2018-09-04T08:57:46.037Z,86.50
2018-09-04T09:00:15.334Z,85.90
2018-09-04T09:02:44.031Z,84.90
2018-09-04T09:05:12.841Z,84.40
2018-09-04T09:07:41.616Z,85.00
2018-09-04T09:10:10.511Z,85.30
2018-09-04T09:12:39.171Z,84.30
2018-09-04T09:15:07.986Z,84.40
2018-09-04T09:17:36.706Z,83.90
2018-09-04T09:20:05.798Z,83.20
2018-09-04T09:22:34.523Z,82.80
2018-09-04T09:25:04.270Z,82.30
2018-09-04T09:27:38.044Z,82.20
2018-09-04T09:30:06.900Z,81.50
2018-09-04T09:32:35.848Z,81.30
2018-09-04T09:35:06.708Z,81.10
2018-09-04T09:37:35.565Z,80.90
2018-09-04T09:40:05.024Z,80.10
2018-09-04T09:42:33.874Z,79.90
2018-09-04T09:45:02.632Z,79.50
2018-09-04T09:47:31.817Z,79.40
2018-09-04T09:50:00.558Z,78.70
2018-09-04T09:52:29.353Z,79.00
2018-09-04T09:54:58.171Z,79.20
2018-09-04T09:57:26.879Z,78.60
2018-09-04T09:59:55.974Z,76.40
2018-09-04T10:02:29.926Z,74.80
2018-09-04T10:04:58.735Z,74.10
2018-09-04T10:07:27.556Z,72.80
2018-09-04T10:09:56.372Z,71.90
2018-09-04T10:12:25.193Z,71.50
2018-09-04T10:14:54.022Z,70.70
2018-09-04T10:17:22.731Z,70.00
2018-09-04T10:19:52.087Z,70.70
2018-09-04T10:22:20.836Z,71.30
2018-09-04T10:24:49.584Z,70.80
2018-09-04T10:27:18.315Z,70.50
2018-09-04T10:29:47.064Z,69.80
2018-09-04T10:32:16.175Z,69.70
2018-09-04T10:34:44.908Z,69.60
2018-09-04T10:37:13.653Z,69.90
2018-09-04T10:39:47.571Z,70.70
2018-09-04T10:42:20.532Z,72.40
2018-09-04T10:44:49.394Z,73.90
2018-09-04T10:47:18.186Z,75.10
2018-09-04T10:49:46.949Z,75.60
2018-09-04T10:52:15.731Z,75.40
2018-09-04T10:54:44.546Z,75.20
2018-09-04T10:57:13.468Z,75.30
2018-09-04T10:59:42.294Z,74.30
2018-09-04T11:02:12.039Z,73.80
2018-09-04T11:04:40.911Z,73.40
2018-09-04T11:07:09.626Z,72.80
2018-09-04T11:09:38.572Z,72.80
2018-09-04T11:12:07.158Z,73.40
2018-09-04T11:14:35.912Z,74.40
2018-09-04T11:17:04.795Z,74.60
2018-09-04T11:19:33.523Z,73.80
2018-09-04T11:22:02.291Z,73.50
2018-09-04T11:24:30.999Z,73.50
2018-09-04T11:26:59.994Z,73.00
2018-09-04T11:29:28.695Z,72.30
2018-09-04T11:31:57.452Z,70.90
2018-09-04T11:34:26.287Z,69.40
2018-09-04T11:36:55.031Z,68.50
2018-09-04T11:39:23.818Z,67.90
2018-09-04T11:41:52.604Z,67.10
2018-09-04T11:44:21.320Z,65.90
2018-09-04T11:46:50.872Z,64.20
2018-09-04T11:49:19.588Z,62.90
2018-09-04T11:57:34.111Z,61.60
2018-09-04T12:00:03.446Z,61.00
2018-09-04T12:02:34.959Z,59.50
2018-09-04T12:05:03.707Z,59.30
2018-09-04T12:07:32.498Z,59.20
2018-09-04T12:10:01.230Z,57.80
2018-09-04T12:12:31.339Z,58.20
2018-09-04T12:14:59.949Z,59.50
2018-09-04T12:17:28.802Z,61.90
2018-09-04T12:21:06.690Z,64.60
2018-09-04T12:23:35.468Z,66.70
2018-09-04T12:26:05.655Z,68.80
2018-09-04T12:28:34.522Z,70.40
2018-09-04T12:31:03.557Z,71.60
2018-09-04T12:33:32.318Z,72.20
2018-09-04T12:36:06.366Z,72.20
2018-09-04T12:38:38.026Z,71.20
2018-09-04T12:41:12.401Z,69.40
2018-09-04T12:43:41.201Z,68.70
2018-09-04T12:46:09.995Z,67.50
2018-09-04T12:48:38.832Z,66.10
2018-09-04T12:51:07.726Z,64.50
2018-09-04T12:53:37.614Z,62.00
2018-09-04T12:56:06.577Z,61.10
2018-09-04T12:58:35.286Z,60.60
2018-09-04T13:01:05.647Z,60.90
2018-09-04T13:03:35.727Z,60.80
2018-09-04T13:06:04.730Z,60.60
2018-09-04T13:08:34.238Z,60.10
2018-09-04T13:11:04.118Z,60.10
2018-09-04T13:13:33.058Z,58.40
2018-09-04T13:16:02.048Z,58.90
2018-09-04T13:18:31.113Z,59.10
2018-09-04T13:21:06.817Z,58.70
2018-09-04T13:23:36.129Z,59.70
2018-09-04T13:26:05.091Z,60.00
2018-09-04T13:28:34.335Z,58.20
2018-09-04T13:31:03.230Z,56.80
2018-09-04T13:33:32.036Z,57.70
2018-09-04T13:36:04.883Z,58.60
2018-09-04T13:38:33.736Z,59.50
2018-09-04T13:41:06.954Z,60.80
2018-09-04T13:43:36.385Z,61.20
2018-09-04T13:46:05.405Z,60.50
2018-09-04T13:48:34.944Z,58.70
2018-09-04T13:51:03.705Z,58.20
2018-09-04T13:53:32.536Z,57.70
2018-09-04T13:56:01.732Z,57.20
2018-09-04T13:58:30.584Z,57.40
2018-09-04T14:00:59.328Z,56.90
2018-09-04T14:04:24.208Z,57.40
2018-09-04T14:06:53.034Z,57.20
2018-09-04T14:09:22.588Z,58.00
2018-09-04T14:11:51.474Z,58.90
2018-09-04T14:14:20.959Z,59.70
2018-09-04T14:16:50.510Z,60.90
2018-09-04T14:19:22.016Z,61.00
2018-09-04T14:21:55.019Z,61.90
2018-09-04T14:24:25.246Z,61.00
2018-09-04T14:26:54.056Z,59.70
2018-09-04T14:29:53.158Z,59.40
2018-09-04T14:31:52.619Z,59.60
2018-09-04T14:34:22.112Z,60.90
2018-09-04T14:36:51.197Z,61.50
2018-09-04T14:39:19.897Z,62.30
2018-09-04T14:41:48.718Z,63.80
2018-09-04T14:44:17.770Z,64.60
2018-09-04T14:46:47.523Z,66.00
2018-09-04T14:49:16.353Z,67.00
2018-09-04T14:51:45.141Z,67.60
2018-09-04T14:54:14.021Z,68.20
2018-09-04T14:56:42.845Z,67.80
2018-09-04T14:59:12.500Z,68.20
2018-09-04T15:01:41.279Z,68.60
2018-09-04T15:04:10.175Z,69.20
2018-09-04T15:06:40.651Z,69.30
2018-09-04T15:09:09.626Z,68.90
2018-09-04T15:11:38.483Z,68.40
2018-09-04T15:14:07.262Z,67.80
2018-09-04T15:16:45.679Z,67.90
2018-09-04T15:19:18.392Z,68.30
2018-09-04T15:21:49.709Z,68.20
2018-09-04T15:24:18.840Z,68.50
2018-09-04T15:26:48.575Z,68.70
2018-09-04T15:29:17.436Z,68.50
2018-09-04T15:31:47.153Z,68.40
2018-09-04T15:34:16.018Z,67.70
2018-09-04T15:36:44.917Z,68.10
2018-09-04T15:39:14.175Z,68.20
2018-09-04T15:41:44.017Z,68.20
2018-09-04T15:44:17.935Z,68.80
2018-09-04T15:46:46.736Z,75.10
2018-09-04T15:49:20.889Z,78.80
2018-09-04T15:51:49.699Z,85.30
2018-09-04T15:54:18.509Z,88.80
2018-09-04T15:56:48.126Z,92.10
2018-09-04T15:59:16.967Z,94.80
2018-09-04T16:01:45.753Z,95.90
2018-09-04T16:04:14.865Z,95.80
2018-09-04T16:06:43.758Z,95.60
2018-09-04T16:09:12.703Z,95.90
2018-09-04T16:11:45.572Z,95.70
2018-09-04T16:14:18.327Z,96.00
2018-09-04T16:16:47.295Z,95.50
2018-09-04T16:19:18.074Z,95.90
2018-09-04T16:21:47.479Z,97.10
2018-09-04T16:24:17.624Z,95.80
2018-09-04T16:26:50.529Z,96.00
2018-09-04T16:29:19.543Z,94.30
2018-09-04T16:31:49.127Z,95.00
2018-09-04T16:34:18.369Z,96.20
2018-09-04T16:36:47.195Z,95.60
2018-09-04T16:39:17.083Z,94.20
2018-09-04T16:41:51.218Z,96.40
2018-09-04T16:44:20.596Z,94.80
2018-09-04T16:46:51.652Z,94.90
2018-09-04T16:49:31.849Z,95.50
2018-09-04T16:52:02.272Z,95.00
2018-09-04T16:54:37.141Z,94.30
2018-09-04T16:57:08.477Z,95.80
2018-09-04T16:59:37.973Z,96.40
2018-09-04T17:02:13.710Z,94.70
2018-09-04T17:04:44.328Z,94.40
2018-09-04T17:07:14.968Z,93.20
2018-09-04T17:09:50.922Z,94.60
2018-09-04T17:12:21.444Z,93.50
2018-09-04T17:14:51.635Z,94.10
2018-09-04T17:17:26.569Z,93.40
2018-09-04T17:19:58.067Z,94.80
2018-09-04T17:22:34.545Z,93.80
2018-09-04T17:25:04.255Z,93.80
2018-09-04T17:27:44.669Z,94.20
2018-09-04T17:30:19.977Z,93.40
2018-09-04T17:32:49.396Z,93.00
2018-09-04T17:35:19.787Z,92.70
2018-09-04T17:37:53.469Z,93.30
2018-09-04T17:40:23.130Z,93.60
2018-09-04T17:42:56.376Z,92.70
2018-09-04T17:45:28.698Z,93.30
2018-09-04T17:48:00.402Z,93.00
2018-09-04T17:50:56.356Z,93.90
2018-09-04T17:53:29.503Z,93.80
2018-09-04T17:56:01.811Z,93.50
2018-09-04T18:01:14.217Z,95.30
2018-09-04T18:03:56.450Z,96.40
2018-09-04T18:06:27.533Z,96.20
2018-09-04T18:09:01.083Z,96.30
2018-09-04T18:14:26.839Z,96.70
2018-09-04T18:17:16.126Z,97.60
2018-09-04T18:19:47.892Z,98.00
2018-09-04T18:22:19.892Z,97.90
2018-09-04T18:24:49.884Z,97.30
2018-09-04T18:27:20.558Z,97.70
2018-09-04T18:32:57.756Z,98.10
2018-09-04T18:35:29.797Z,97.90
2018-09-04T18:38:19.401Z,98.10
2018-09-04T18:41:11.874Z,98.70
